Sandra Hugh — WDD9019 — position and weather

sailwx.info

Track history (hours):
 
Tides and Currents Weather Stations Pressure Air Temp Water Temp Dewpoint Dewpoint Depression Visibility Wind Speed Wind Dir Waves Ship Positions

Sandra Hugh

Owner: Sortwell Inc., DBA AmNav Maritime Services, Oakland, CA. More information available from US FCC via Universal Licensing System and Coast Guard Vessel Documentation Center.

Last reported at 2016-Feb-08 13:13 UTC. Time now 2016-Feb-09 03:33 UTC.
Position N 38°02' W 122°08'.

Length 24 m; draft 4.9 m.

Type: Tug. MMSI: 367305920.

Date/timePositionNaut miles runAvg speedWind from/ knotsBaromVisibWave heightAir tempDewpointWater temp
2016-Feb-08 13:13N 38°02' W 122°08'0 0.1
2016-Feb-08 05:32N 38°02' W 122°09'0 0.0
2016-Feb-07 06:33N 38°02' W 122°09'13 1.1
2016-Feb-06 18:13N 38°02' W 121°52'1 1.8
2016-Feb-06 17:29N 38°02' W 121°51'14 6.8
2016-Feb-06 15:28N 38°02' W 122°08'3 1.0
2016-Feb-06 12:17N 38°03' W 122°12'2 2.8
2016-Feb-06 11:33N 38°04' W 122°15'2 1.8
2016-Feb-06 10:30N 38°04' W 122°17'3 0.6
2016-Feb-06 04:26N 38°04' W 122°12'0 0.6
2016-Feb-06 03:33N 38°03' W 122°13'0 0.0
2016-Feb-06 02:33N 38°03' W 122°13'4 0.3
2016-Feb-05 14:29N 38°02' W 122°09'1 0.1
2016-Feb-05 05:06N 38°02' W 122°08'4 0.3
2016-Feb-04 12:33N 38°04' W 122°13'1111.2
2016-Feb-04 11:33N 37°59' W 122°26'5 5.3
2016-Feb-04 10:33N 37°54' W 122°22'3 3.0
2016-Feb-04 09:34N 37°53' W 122°25'2 2.3
2016-Feb-04 08:33N 37°51' W 122°23'4 4.1
2016-Feb-04 07:33N 37°49' W 122°19'0 0.0
2016-Feb-04 06:33N 37°49' W 122°19'0 0.0
2016-Feb-04 05:33N 37°49' W 122°19'0 0.0
2016-Feb-04 04:33N 37°49' W 122°19'0 0.0
2016-Feb-04 03:33N 37°49' W 122°19'0 0.0
2016-Feb-04 02:33N 37°49' W 122°19'0 0.0
2016-Feb-04 01:33N 37°49' W 122°19'0 0.0
2016-Feb-04 00:33N 37°49' W 122°19'0 0.0
2016-Feb-03 23:33N 37°49' W 122°19'0 0.0
2016-Feb-03 22:33N 37°49' W 122°19'0 0.0
2016-Feb-03 21:34N 37°49' W 122°19'0 0.0
2016-Feb-03 20:34N 37°49' W 122°19'0 0.0
2016-Feb-03 19:34N 37°49' W 122°19'0 0.0
2016-Feb-03 18:33N 37°49' W 122°19'0 0.0
2016-Feb-03 17:33N 37°49' W 122°19'0 0.0
2016-Feb-03 16:33N 37°49' W 122°19'0 0.0
2016-Feb-03 15:33N 37°49' W 122°19'5 4.6
2016-Feb-03 14:33N 37°49' W 122°24'0 0.2
2016-Feb-03 13:33N 37°49' W 122°24'5 4.5
2016-Feb-03 12:34N 37°49' W 122°19'0 0.0
2016-Feb-03 11:33N 37°49' W 122°19'0 0.0
2016-Feb-03 10:34N 37°49' W 122°19'0 0.0
2016-Feb-03 09:33N 37°49' W 122°19'0 0.0
2016-Feb-03 08:33N 37°49' W 122°19'0 0.0
2016-Feb-03 07:33N 37°49' W 122°19'0 0.0
2016-Feb-03 06:34N 37°49' W 122°19'0 0.0
2016-Feb-03 05:33N 37°49' W 122°19'0 0.0
2016-Feb-03 04:33N 37°49' W 122°19'0 0.0
2016-Feb-03 03:34N 37°49' W 122°19'0 0.0
2016-Feb-03 02:33N 37°49' W 122°19'0 0.0
2016-Feb-03 01:33N 37°49' W 122°19'1 0.6
2016-Feb-03 00:33N 37°49' W 122°19'3 2.9
2016-Feb-02 23:34N 37°48' W 122°23'3 3.5
2016-Feb-02 22:33N 37°49' W 122°19'0 0.0
2016-Feb-02 21:33N 37°49' W 122°19'0 0.0
2016-Feb-02 20:34N 37°49' W 122°19'0 0.0
2016-Feb-02 19:34N 37°49' W 122°19'0 0.0
2016-Feb-02 18:34N 37°49' W 122°19'0 0.0
2016-Feb-02 17:34N 37°49' W 122°19'0 0.0
2016-Feb-02 16:34N 37°49' W 122°19'0 0.0
2016-Feb-02 15:33N 37°49' W 122°19'0 0.0
2016-Feb-02 14:33N 37°49' W 122°19'0 0.0
2016-Feb-02 13:33N 37°49' W 122°19'1 0.5
2016-Feb-02 12:33N 37°49' W 122°19'1 0.5
2016-Feb-02 11:34N 37°49' W 122°19'0 0.0
2016-Feb-02 10:34N 37°49' W 122°19'0 0.0
2016-Feb-02 09:33N 37°49' W 122°19'0 0.0
2016-Feb-02 08:33N 37°49' W 122°19'0 0.0
2016-Feb-02 07:34N 37°49' W 122°19'0 0.0
2016-Feb-02 06:34N 37°49' W 122°19'0 0.0
2016-Feb-02 05:34N 37°49' W 122°19'0 0.0
2016-Feb-02 04:34N 37°49' W 122°19'0 0.0
2016-Feb-02 03:33N 37°49' W 122°19'0 0.0
2016-Feb-02 02:33N 37°49' W 122°19'0 0.0
2016-Feb-02 01:33N 37°49' W 122°19'0 0.0
2016-Feb-02 00:34N 37°49' W 122°19'0 0.0
2016-Feb-01 23:34N 37°49' W 122°19'0 0.0
2016-Feb-01 22:33N 37°49' W 122°19'0 0.0
2016-Feb-01 21:33N 37°49' W 122°19'0 0.0
2016-Feb-01 20:33N 37°49' W 122°19'0 0.0
2016-Feb-01 19:34N 37°49' W 122°19'0 0.0
2016-Feb-01 18:34N 37°49' W 122°19'0 0.0
2016-Feb-01 17:33N 37°49' W 122°19'0 0.0
2016-Feb-01 16:33N 37°49' W 122°19'0 0.0
2016-Feb-01 15:34N 37°49' W 122°19'0 0.0
2016-Feb-01 14:33N 37°49' W 122°19'0 0.0
2016-Feb-01 13:33N 37°49' W 122°19'0 0.0
2016-Feb-01 12:33N 37°49' W 122°19'0 0.0
2016-Feb-01 11:34N 37°49' W 122°19'0 0.0
2016-Feb-01 10:33N 37°49' W 122°19'0 0.0
2016-Feb-01 09:33N 37°49' W 122°19'0 0.0
2016-Feb-01 08:33N 37°49' W 122°19'0 0.0
2016-Feb-01 07:33N 37°49' W 122°19'0 0.0
2016-Feb-01 06:34N 37°49' W 122°19'0 0.0
2016-Feb-01 05:33N 37°49' W 122°19'0 0.0
2016-Feb-01 04:33N 37°49' W 122°19'0 0.0
2016-Feb-01 03:33N 37°49' W 122°19'0 0.0
2016-Feb-01 02:33N 37°49' W 122°19'0 0.0
2016-Feb-01 01:34N 37°49' W 122°19'0 0.0
2016-Feb-01 00:34N 37°49' W 122°19'1 0.9
2016-Jan-31 23:33N 37°49' W 122°19'1 1.5
2016-Jan-31 22:33N 37°48' W 122°21'2 2.3
2016-Jan-31 21:34N 37°49' W 122°19'0 0.0
2016-Jan-31 20:33N 37°49' W 122°19'0 0.0
2016-Jan-31 19:33N 37°49' W 122°19'0 0.0
2016-Jan-31 18:33N 37°49' W 122°19'0 0.0
2016-Jan-31 17:34N 37°49' W 122°19'0 0.0
2016-Jan-31 16:33N 37°49' W 122°19'0 0.0
2016-Jan-31 15:33N 37°49' W 122°19'0 0.0
2016-Jan-31 14:33N 37°49' W 122°19'0 0.0
2016-Jan-31 13:33N 37°49' W 122°19'0 0.0
2016-Jan-31 12:34N 37°49' W 122°19'0 0.0
2016-Jan-31 11:34N 37°49' W 122°19'0 0.0
2016-Jan-31 10:33N 37°49' W 122°19'0 0.0
2016-Jan-31 09:34N 37°49' W 122°19'0 0.0
2016-Jan-31 08:34N 37°49' W 122°19'0 0.0
2016-Jan-31 07:33N 37°49' W 122°19'0 0.0
2016-Jan-31 06:33N 37°49' W 122°19'0 0.0
2016-Jan-31 05:34N 37°49' W 122°19'0 0.0
2016-Jan-31 04:33N 37°49' W 122°19'0 0.0
2016-Jan-31 03:33N 37°49' W 122°19'0 0.0
2016-Jan-31 02:34N 37°49' W 122°19'1 0.7
2016-Jan-31 01:34N 37°49' W 122°19'1 0.7
2016-Jan-31 00:33N 37°49' W 122°19'0 0.0
2016-Jan-30 23:34N 37°49' W 122°19'0 0.0
2016-Jan-30 22:33N 37°49' W 122°19'0 0.0
2016-Jan-30 21:33N 37°49' W 122°19'0 0.0
2016-Jan-30 20:33N 37°49' W 122°19'0 0.0
2016-Jan-30 19:33N 37°49' W 122°19'0 0.0
2016-Jan-30 18:33N 37°49' W 122°19'0 0.0
2016-Jan-30 17:33N 37°49' W 122°19'0 0.0
2016-Jan-30 16:34N 37°49' W 122°19'0 0.0
2016-Jan-30 15:34N 37°49' W 122°19'0 0.0
2016-Jan-30 14:33N 37°49' W 122°19'1 0.9
2016-Jan-30 13:33N 37°49' W 122°20'1 0.9
2016-Jan-30 12:34N 37°49' W 122°19'0 0.0
2016-Jan-30 11:33N 37°49' W 122°19'0 0.0
2016-Jan-30 10:33N 37°49' W 122°19'0 0.0
2016-Jan-30 09:34N 37°49' W 122°19'0 0.0
2016-Jan-30 08:34N 37°49' W 122°19'0 0.0
2016-Jan-30 07:34N 37°49' W 122°19'0 0.0
2016-Jan-30 06:34N 37°49' W 122°19'0 0.0
2016-Jan-30 05:33N 37°49' W 122°19'0 0.0
2016-Jan-30 04:33N 37°49' W 122°19'0 0.0
2016-Jan-30 03:34N 37°49' W 122°19'0 0.0
2016-Jan-30 02:34N 37°49' W 122°19'0 0.0
2016-Jan-30 01:34N 37°49' W 122°19'0 0.0
2016-Jan-30 00:33N 37°49' W 122°19'0 0.0
2016-Jan-29 23:33N 37°49' W 122°19'2 1.6
2016-Jan-29 22:34N 37°48' W 122°19'1 1.0
2016-Jan-29 21:33N 37°48' W 122°20'2 2.2
2016-Jan-29 20:33N 37°48' W 122°17'0 0.3
2016-Jan-29 19:34N 37°48' W 122°18'0 0.1
2016-Jan-29 18:34N 37°48' W 122°18'2 1.7
2016-Jan-29 17:34N 37°49' W 122°19'1 0.9
2016-Jan-29 16:33N 37°49' W 122°19'0 0.0
2016-Jan-29 15:33N 37°49' W 122°19'0 0.0
2016-Jan-29 14:33N 37°49' W 122°19'0 0.0
2016-Jan-29 13:34N 37°49' W 122°19'  
Track history (hours):
 
Tides and Currents Weather Stations Pressure Air Temp Water Temp Dewpoint Dewpoint Depression Visibility Wind Speed Wind Dir Waves Ship Positions

Sandra Hugh

Owner: Sortwell Inc., DBA AmNav Maritime Services, Oakland, CA. More information available from US FCC via Universal Licensing System and Coast Guard Vessel Documentation Center.

Last reported at 2016-Feb-08 13:13 UTC. Time now 2016-Feb-09 03:33 UTC.
Position N 38°02' W 122°08'.

Length 24 m; draft 4.9 m.

Type: Tug. MMSI: 367305920.

Date/timePositionNaut miles runAvg speedWind from/ knotsBaromVisibWave heightAir tempDewpointWater temp
2016-Feb-08 13:13N 38°02' W 122°08'0 0.1
2016-Feb-08 05:32N 38°02' W 122°09'0 0.0
2016-Feb-07 06:33N 38°02' W 122°09'13 1.1
2016-Feb-06 18:13N 38°02' W 121°52'1 1.8
2016-Feb-06 17:29N 38°02' W 121°51'14 6.8
2016-Feb-06 15:28N 38°02' W 122°08'3 1.0
2016-Feb-06 12:17N 38°03' W 122°12'2 2.8
2016-Feb-06 11:33N 38°04' W 122°15'2 1.8
2016-Feb-06 10:30N 38°04' W 122°17'3 0.6
2016-Feb-06 04:26N 38°04' W 122°12'0 0.6
2016-Feb-06 03:33N 38°03' W 122°13'0 0.0
2016-Feb-06 02:33N 38°03' W 122°13'4 0.3
2016-Feb-05 14:29N 38°02' W 122°09'1 0.1
2016-Feb-05 05:06N 38°02' W 122°08'4 0.3
2016-Feb-04 12:33N 38°04' W 122°13'1111.2
2016-Feb-04 11:33N 37°59' W 122°26'5 5.3
2016-Feb-04 10:33N 37°54' W 122°22'3 3.0
2016-Feb-04 09:34N 37°53' W 122°25'2 2.3
2016-Feb-04 08:33N 37°51' W 122°23'4 4.1
2016-Feb-04 07:33N 37°49' W 122°19'0 0.0
2016-Feb-04 06:33N 37°49' W 122°19'0 0.0
2016-Feb-04 05:33N 37°49' W 122°19'0 0.0
2016-Feb-04 04:33N 37°49' W 122°19'0 0.0
2016-Feb-04 03:33N 37°49' W 122°19'0 0.0
2016-Feb-04 02:33N 37°49' W 122°19'0 0.0
2016-Feb-04 01:33N 37°49' W 122°19'0 0.0
2016-Feb-04 00:33N 37°49' W 122°19'0 0.0
2016-Feb-03 23:33N 37°49' W 122°19'0 0.0
2016-Feb-03 22:33N 37°49' W 122°19'0 0.0
2016-Feb-03 21:34N 37°49' W 122°19'0 0.0
2016-Feb-03 20:34N 37°49' W 122°19'0 0.0
2016-Feb-03 19:34N 37°49' W 122°19'0 0.0
2016-Feb-03 18:33N 37°49' W 122°19'0 0.0
2016-Feb-03 17:33N 37°49' W 122°19'0 0.0
2016-Feb-03 16:33N 37°49' W 122°19'0 0.0
2016-Feb-03 15:33N 37°49' W 122°19'5 4.6
2016-Feb-03 14:33N 37°49' W 122°24'0 0.2
2016-Feb-03 13:33N 37°49' W 122°24'5 4.5
2016-Feb-03 12:34N 37°49' W 122°19'0 0.0
2016-Feb-03 11:33N 37°49' W 122°19'0 0.0
2016-Feb-03 10:34N 37°49' W 122°19'0 0.0
2016-Feb-03 09:33N 37°49' W 122°19'0 0.0
2016-Feb-03 08:33N 37°49' W 122°19'0 0.0
2016-Feb-03 07:33N 37°49' W 122°19'0 0.0
2016-Feb-03 06:34N 37°49' W 122°19'0 0.0
2016-Feb-03 05:33N 37°49' W 122°19'0 0.0
2016-Feb-03 04:33N 37°49' W 122°19'0 0.0
2016-Feb-03 03:34N 37°49' W 122°19'0 0.0
2016-Feb-03 02:33N 37°49' W 122°19'0 0.0
2016-Feb-03 01:33N 37°49' W 122°19'1 0.6
2016-Feb-03 00:33N 37°49' W 122°19'3 2.9
2016-Feb-02 23:34N 37°48' W 122°23'3 3.5
2016-Feb-02 22:33N 37°49' W 122°19'0 0.0
2016-Feb-02 21:33N 37°49' W 122°19'0 0.0
2016-Feb-02 20:34N 37°49' W 122°19'0 0.0
2016-Feb-02 19:34N 37°49' W 122°19'0 0.0
2016-Feb-02 18:34N 37°49' W 122°19'0 0.0
2016-Feb-02 17:34N 37°49' W 122°19'0 0.0
2016-Feb-02 16:34N 37°49' W 122°19'0 0.0
2016-Feb-02 15:33N 37°49' W 122°19'0 0.0
2016-Feb-02 14:33N 37°49' W 122°19'0 0.0
2016-Feb-02 13:33N 37°49' W 122°19'1 0.5
2016-Feb-02 12:33N 37°49' W 122°19'1 0.5
2016-Feb-02 11:34N 37°49' W 122°19'0 0.0
2016-Feb-02 10:34N 37°49' W 122°19'0 0.0
2016-Feb-02 09:33N 37°49' W 122°19'0 0.0
2016-Feb-02 08:33N 37°49' W 122°19'0 0.0
2016-Feb-02 07:34N 37°49' W 122°19'0 0.0
2016-Feb-02 06:34N 37°49' W 122°19'0 0.0
2016-Feb-02 05:34N 37°49' W 122°19'0 0.0
2016-Feb-02 04:34N 37°49' W 122°19'0 0.0
2016-Feb-02 03:33N 37°49' W 122°19'0 0.0
2016-Feb-02 02:33N 37°49' W 122°19'0 0.0
2016-Feb-02 01:33N 37°49' W 122°19'0 0.0
2016-Feb-02 00:34N 37°49' W 122°19'0 0.0
2016-Feb-01 23:34N 37°49' W 122°19'0 0.0
2016-Feb-01 22:33N 37°49' W 122°19'0 0.0
2016-Feb-01 21:33N 37°49' W 122°19'0 0.0
2016-Feb-01 20:33N 37°49' W 122°19'0 0.0
2016-Feb-01 19:34N 37°49' W 122°19'0 0.0
2016-Feb-01 18:34N 37°49' W 122°19'0 0.0
2016-Feb-01 17:33N 37°49' W 122°19'0 0.0
2016-Feb-01 16:33N 37°49' W 122°19'0 0.0
2016-Feb-01 15:34N 37°49' W 122°19'0 0.0
2016-Feb-01 14:33N 37°49' W 122°19'0 0.0
2016-Feb-01 13:33N 37°49' W 122°19'0 0.0
2016-Feb-01 12:33N 37°49' W 122°19'0 0.0
2016-Feb-01 11:34N 37°49' W 122°19'0 0.0
2016-Feb-01 10:33N 37°49' W 122°19'0 0.0
2016-Feb-01 09:33N 37°49' W 122°19'0 0.0
2016-Feb-01 08:33N 37°49' W 122°19'0 0.0
2016-Feb-01 07:33N 37°49' W 122°19'0 0.0
2016-Feb-01 06:34N 37°49' W 122°19'0 0.0
2016-Feb-01 05:33N 37°49' W 122°19'0 0.0
2016-Feb-01 04:33N 37°49' W 122°19'0 0.0
2016-Feb-01 03:33N 37°49' W 122°19'0 0.0
2016-Feb-01 02:33N 37°49' W 122°19'0 0.0
2016-Feb-01 01:34N 37°49' W 122°19'0 0.0
2016-Feb-01 00:34N 37°49' W 122°19'1 0.9
2016-Jan-31 23:33N 37°49' W 122°19'1 1.5
2016-Jan-31 22:33N 37°48' W 122°21'2 2.3
2016-Jan-31 21:34N 37°49' W 122°19'0 0.0
2016-Jan-31 20:33N 37°49' W 122°19'0 0.0
2016-Jan-31 19:33N 37°49' W 122°19'0 0.0
2016-Jan-31 18:33N 37°49' W 122°19'0 0.0
2016-Jan-31 17:34N 37°49' W 122°19'0 0.0
2016-Jan-31 16:33N 37°49' W 122°19'0 0.0
2016-Jan-31 15:33N 37°49' W 122°19'0 0.0
2016-Jan-31 14:33N 37°49' W 122°19'0 0.0
2016-Jan-31 13:33N 37°49' W 122°19'0 0.0
2016-Jan-31 12:34N 37°49' W 122°19'0 0.0
2016-Jan-31 11:34N 37°49' W 122°19'0 0.0
2016-Jan-31 10:33N 37°49' W 122°19'0 0.0
2016-Jan-31 09:34N 37°49' W 122°19'0 0.0
2016-Jan-31 08:34N 37°49' W 122°19'0 0.0
2016-Jan-31 07:33N 37°49' W 122°19'0 0.0
2016-Jan-31 06:33N 37°49' W 122°19'0 0.0
2016-Jan-31 05:34N 37°49' W 122°19'0 0.0
2016-Jan-31 04:33N 37°49' W 122°19'0 0.0
2016-Jan-31 03:33N 37°49' W 122°19'0 0.0
2016-Jan-31 02:34N 37°49' W 122°19'1 0.7
2016-Jan-31 01:34N 37°49' W 122°19'1 0.7
2016-Jan-31 00:33N 37°49' W 122°19'0 0.0
2016-Jan-30 23:34N 37°49' W 122°19'0 0.0
2016-Jan-30 22:33N 37°49' W 122°19'0 0.0
2016-Jan-30 21:33N 37°49' W 122°19'0 0.0
2016-Jan-30 20:33N 37°49' W 122°19'0 0.0
2016-Jan-30 19:33N 37°49' W 122°19'0 0.0
2016-Jan-30 18:33N 37°49' W 122°19'0 0.0
2016-Jan-30 17:33N 37°49' W 122°19'0 0.0
2016-Jan-30 16:34N 37°49' W 122°19'0 0.0
2016-Jan-30 15:34N 37°49' W 122°19'0 0.0
2016-Jan-30 14:33N 37°49' W 122°19'1 0.9
2016-Jan-30 13:33N 37°49' W 122°20'1 0.9
2016-Jan-30 12:34N 37°49' W 122°19'0 0.0
2016-Jan-30 11:33N 37°49' W 122°19'0 0.0
2016-Jan-30 10:33N 37°49' W 122°19'0 0.0
2016-Jan-30 09:34N 37°49' W 122°19'0 0.0
2016-Jan-30 08:34N 37°49' W 122°19'0 0.0
2016-Jan-30 07:34N 37°49' W 122°19'0 0.0
2016-Jan-30 06:34N 37°49' W 122°19'0 0.0
2016-Jan-30 05:33N 37°49' W 122°19'0 0.0
2016-Jan-30 04:33N 37°49' W 122°19'0 0.0
2016-Jan-30 03:34N 37°49' W 122°19'0 0.0
2016-Jan-30 02:34N 37°49' W 122°19'0 0.0
2016-Jan-30 01:34N 37°49' W 122°19'0 0.0
2016-Jan-30 00:33N 37°49' W 122°19'0 0.0
2016-Jan-29 23:33N 37°49' W 122°19'2 1.6
2016-Jan-29 22:34N 37°48' W 122°19'1 1.0
2016-Jan-29 21:33N 37°48' W 122°20'2 2.2
2016-Jan-29 20:33N 37°48' W 122°17'0 0.3
2016-Jan-29 19:34N 37°48' W 122°18'0 0.1
2016-Jan-29 18:34N 37°48' W 122°18'2 1.7
2016-Jan-29 17:34N 37°49' W 122°19'1 0.9
2016-Jan-29 16:33N 37°49' W 122°19'0 0.0
2016-Jan-29 15:33N 37°49' W 122°19'0 0.0
2016-Jan-29 14:33N 37°49' W 122°19'0 0.0
2016-Jan-29 13:34N 37°49' W 122°19'  

Dump ship's entire track history